sensor_id;sensor_type;location;lat;lon;timestamp;P1;durP1;ratioP1;P2;durP2;ratioP2
18072;SDS011;9161;47.348;9.648;2023-02-28T00:04:46;8.27;;;4.83;;
18072;SDS011;9161;47.348;9.648;2023-02-28T00:09:53;9.50;;;4.87;;
18072;SDS011;9161;47.348;9.648;2023-02-28T00:14:56;7.27;;;4.20;;
18072;SDS011;9161;47.348;9.648;2023-02-28T00:19:58;8.57;;;4.93;;
18072;SDS011;9161;47.348;9.648;2023-02-28T00:25:10;9.53;;;5.13;;
18072;SDS011;9161;47.348;9.648;2023-02-28T00:30:16;9.87;;;5.70;;
18072;SDS011;9161;47.348;9.648;2023-02-28T00:35:18;10.30;;;5.43;;
18072;SDS011;9161;47.348;9.648;2023-02-28T00:40:21;7.23;;;4.80;;
18072;SDS011;9161;47.348;9.648;2023-02-28T00:45:24;8.50;;;5.27;;
18072;SDS011;9161;47.348;9.648;2023-02-28T00:50:27;8.37;;;4.80;;
18072;SDS011;9161;47.348;9.648;2023-02-28T00:55:29;8.57;;;5.07;;
18072;SDS011;9161;47.348;9.648;2023-02-28T01:00:33;7.30;;;4.70;;
18072;SDS011;9161;47.348;9.648;2023-02-28T01:05:35;9.13;;;5.13;;
18072;SDS011;9161;47.348;9.648;2023-02-28T01:10:37;8.67;;;5.23;;
18072;SDS011;9161;47.348;9.648;2023-02-28T01:15:41;9.93;;;5.50;;
18072;SDS011;9161;47.348;9.648;2023-02-28T01:20:46;12.37;;;5.50;;
18072;SDS011;9161;47.348;9.648;2023-02-28T01:25:49;8.90;;;5.20;;
18072;SDS011;9161;47.348;9.648;2023-02-28T01:30:52;9.27;;;5.60;;
18072;SDS011;9161;47.348;9.648;2023-02-28T01:35:58;11.60;;;5.30;;
18072;SDS011;9161;47.348;9.648;2023-02-28T01:41:00;10.17;;;5.30;;
18072;SDS011;9161;47.348;9.648;2023-02-28T01:46:04;11.80;;;5.90;;
18072;SDS011;9161;47.348;9.648;2023-02-28T01:51:07;9.07;;;5.60;;
18072;SDS011;9161;47.348;9.648;2023-02-28T01:56:12;10.77;;;5.10;;
18072;SDS011;9161;47.348;9.648;2023-02-28T02:01:22;10.63;;;6.00;;
18072;SDS011;9161;47.348;9.648;2023-02-28T02:06:29;9.77;;;5.83;;
18072;SDS011;9161;47.348;9.648;2023-02-28T02:11:35;11.70;;;5.53;;
18072;SDS011;9161;47.348;9.648;2023-02-28T02:16:42;9.50;;;5.67;;
18072;SDS011;9161;47.348;9.648;2023-02-28T02:22:01;9.73;;;5.63;;
18072;SDS011;9161;47.348;9.648;2023-02-28T02:27:20;11.83;;;6.23;;
18072;SDS011;9161;47.348;9.648;2023-02-28T02:32:30;11.57;;;6.10;;
18072;SDS011;9161;47.348;9.648;2023-02-28T02:37:59;10.47;;;5.67;;
18072;SDS011;9161;47.348;9.648;2023-02-28T02:43:11;11.50;;;5.83;;
18072;SDS011;9161;47.348;9.648;2023-02-28T02:48:19;11.17;;;6.03;;
18072;SDS011;9161;47.348;9.648;2023-02-28T02:53:27;12.57;;;6.20;;
18072;SDS011;9161;47.348;9.648;2023-02-28T02:58:34;9.97;;;6.40;;
18072;SDS011;9161;47.348;9.648;2023-02-28T03:03:42;14.60;;;6.63;;
18072;SDS011;9161;47.348;9.648;2023-02-28T03:08:47;13.27;;;6.50;;
18072;SDS011;9161;47.348;9.648;2023-02-28T03:19:45;12.47;;;7.10;;
18072;SDS011;9161;47.348;9.648;2023-02-28T03:24:56;12.83;;;7.07;;
18072;SDS011;9161;47.348;9.648;2023-02-28T03:30:06;11.33;;;6.13;;
18072;SDS011;9161;47.348;9.648;2023-02-28T03:35:16;10.33;;;6.43;;
18072;SDS011;9161;47.348;9.648;2023-02-28T03:40:24;11.07;;;6.40;;
18072;SDS011;9161;47.348;9.648;2023-02-28T03:45:32;12.10;;;6.53;;
18072;SDS011;9161;47.348;9.648;2023-02-28T03:50:36;15.77;;;6.13;;
18072;SDS011;9161;47.348;9.648;2023-02-28T03:55:42;12.53;;;6.47;;
18072;SDS011;9161;47.348;9.648;2023-02-28T04:00:52;11.13;;;6.60;;
18072;SDS011;9161;47.348;9.648;2023-02-28T04:05:59;10.97;;;6.30;;
18072;SDS011;9161;47.348;9.648;2023-02-28T04:11:03;12.40;;;7.00;;
18072;SDS011;9161;47.348;9.648;2023-02-28T04:16:09;12.63;;;7.27;;
18072;SDS011;9161;47.348;9.648;2023-02-28T04:21:23;19.10;;;8.10;;
18072;SDS011;9161;47.348;9.648;2023-02-28T04:26:29;12.40;;;7.10;;
18072;SDS011;9161;47.348;9.648;2023-02-28T04:31:32;11.70;;;6.40;;
18072;SDS011;9161;47.348;9.648;2023-02-28T04:36:34;11.87;;;5.83;;
18072;SDS011;9161;47.348;9.648;2023-02-28T04:41:38;10.90;;;6.33;;
18072;SDS011;9161;47.348;9.648;2023-02-28T04:46:41;12.70;;;6.43;;
18072;SDS011;9161;47.348;9.648;2023-02-28T04:51:43;10.20;;;6.07;;
18072;SDS011;9161;47.348;9.648;2023-02-28T04:56:47;12.17;;;6.17;;
18072;SDS011;9161;47.348;9.648;2023-02-28T05:01:50;11.70;;;6.33;;
18072;SDS011;9161;47.348;9.648;2023-02-28T05:06:52;11.27;;;7.13;;
18072;SDS011;9161;47.348;9.648;2023-02-28T05:11:56;13.97;;;8.07;;
18072;SDS011;9161;47.348;9.648;2023-02-28T05:16:59;11.33;;;6.60;;
18072;SDS011;9161;47.348;9.648;2023-02-28T05:22:00;11.70;;;7.00;;
18072;SDS011;9161;47.348;9.648;2023-02-28T05:27:06;13.87;;;6.83;;
18072;SDS011;9161;47.348;9.648;2023-02-28T05:32:09;11.67;;;6.73;;
18072;SDS011;9161;47.348;9.648;2023-02-28T05:37:12;13.23;;;6.50;;
18072;SDS011;9161;47.348;9.648;2023-02-28T05:42:17;16.50;;;7.60;;
18072;SDS011;9161;47.348;9.648;2023-02-28T05:47:19;11.80;;;6.97;;
18072;SDS011;9161;47.348;9.648;2023-02-28T05:52:21;11.40;;;7.30;;
18072;SDS011;9161;47.348;9.648;2023-02-28T05:57:25;11.50;;;6.60;;
18072;SDS011;9161;47.348;9.648;2023-02-28T06:02:27;14.30;;;6.67;;
18072;SDS011;9161;47.348;9.648;2023-02-28T06:07:29;14.57;;;7.53;;
18072;SDS011;9161;47.348;9.648;2023-02-28T06:12:32;17.70;;;7.27;;
18072;SDS011;9161;47.348;9.648;2023-02-28T06:17:35;14.90;;;7.37;;
18072;SDS011;9161;47.348;9.648;2023-02-28T06:22:37;12.87;;;7.30;;
18072;SDS011;9161;47.348;9.648;2023-02-28T06:27:40;13.10;;;7.47;;
18072;SDS011;9161;47.348;9.648;2023-02-28T06:32:43;13.30;;;7.27;;
18072;SDS011;9161;47.348;9.648;2023-02-28T06:37:45;13.37;;;7.43;;
18072;SDS011;9161;47.348;9.648;2023-02-28T06:42:49;15.80;;;7.50;;
18072;SDS011;9161;47.348;9.648;2023-02-28T06:47:51;18.23;;;8.67;;
18072;SDS011;9161;47.348;9.648;2023-02-28T06:52:54;15.40;;;7.83;;
18072;SDS011;9161;47.348;9.648;2023-02-28T06:57:58;17.00;;;7.80;;
18072;SDS011;9161;47.348;9.648;2023-02-28T07:03:00;13.83;;;7.40;;
18072;SDS011;9161;47.348;9.648;2023-02-28T07:08:03;13.63;;;7.53;;
18072;SDS011;9161;47.348;9.648;2023-02-28T07:13:08;15.17;;;8.00;;
18072;SDS011;9161;47.348;9.648;2023-02-28T07:18:11;13.77;;;7.50;;
18072;SDS011;9161;47.348;9.648;2023-02-28T07:23:13;12.90;;;6.97;;
18072;SDS011;9161;47.348;9.648;2023-02-28T07:28:17;12.10;;;6.87;;
18072;SDS011;9161;47.348;9.648;2023-02-28T07:33:19;13.17;;;7.07;;
18072;SDS011;9161;47.348;9.648;2023-02-28T07:38:21;12.87;;;7.30;;
18072;SDS011;9161;47.348;9.648;2023-02-28T07:43:24;14.30;;;6.97;;
18072;SDS011;9161;47.348;9.648;2023-02-28T07:48:26;13.33;;;7.57;;
18072;SDS011;9161;47.348;9.648;2023-02-28T07:53:29;11.87;;;7.50;;
18072;SDS011;9161;47.348;9.648;2023-02-28T07:58:36;17.80;;;7.80;;
18072;SDS011;9161;47.348;9.648;2023-02-28T08:03:39;13.87;;;6.87;;
18072;SDS011;9161;47.348;9.648;2023-02-28T08:08:41;13.00;;;7.50;;
18072;SDS011;9161;47.348;9.648;2023-02-28T08:13:46;15.03;;;7.50;;
18072;SDS011;9161;47.348;9.648;2023-02-28T08:18:48;12.37;;;7.23;;
18072;SDS011;9161;47.348;9.648;2023-02-28T08:23:51;15.90;;;7.67;;
18072;SDS011;9161;47.348;9.648;2023-02-28T08:28:55;13.30;;;7.73;;
18072;SDS011;9161;47.348;9.648;2023-02-28T08:34:00;11.97;;;7.30;;
18072;SDS011;9161;47.348;9.648;2023-02-28T08:39:05;11.90;;;7.27;;
18072;SDS011;9161;47.348;9.648;2023-02-28T08:44:10;14.70;;;6.90;;
18072;SDS011;9161;47.348;9.648;2023-02-28T08:49:12;11.17;;;6.43;;
18072;SDS011;9161;47.348;9.648;2023-02-28T08:54:16;12.87;;;7.13;;
18072;SDS011;9161;47.348;9.648;2023-02-28T08:59:21;12.03;;;7.60;;
18072;SDS011;9161;47.348;9.648;2023-02-28T09:04:23;10.53;;;6.60;;
18072;SDS011;9161;47.348;9.648;2023-02-28T09:09:25;10.50;;;6.37;;
18072;SDS011;9161;47.348;9.648;2023-02-28T09:14:29;11.27;;;6.83;;
18072;SDS011;9161;47.348;9.648;2023-02-28T09:19:32;9.30;;;6.17;;
18072;SDS011;9161;47.348;9.648;2023-02-28T09:24:35;9.97;;;6.03;;
18072;SDS011;9161;47.348;9.648;2023-02-28T09:29:38;11.63;;;6.83;;
18072;SDS011;9161;47.348;9.648;2023-02-28T09:34:41;9.37;;;6.27;;
18072;SDS011;9161;47.348;9.648;2023-02-28T09:39:43;9.43;;;6.40;;
18072;SDS011;9161;47.348;9.648;2023-02-28T09:44:47;8.57;;;5.90;;
18072;SDS011;9161;47.348;9.648;2023-02-28T09:49:50;10.77;;;5.67;;
18072;SDS011;9161;47.348;9.648;2023-02-28T09:54:52;15.00;;;6.60;;
18072;SDS011;9161;47.348;9.648;2023-02-28T09:59:59;13.57;;;6.70;;
18072;SDS011;9161;47.348;9.648;2023-02-28T10:05:11;8.57;;;5.77;;
18072;SDS011;9161;47.348;9.648;2023-02-28T10:10:18;10.10;;;6.73;;
18072;SDS011;9161;47.348;9.648;2023-02-28T10:15:27;10.83;;;6.33;;
18072;SDS011;9161;47.348;9.648;2023-02-28T10:20:34;9.67;;;6.33;;
18072;SDS011;9161;47.348;9.648;2023-02-28T10:25:40;10.67;;;7.07;;
18072;SDS011;9161;47.348;9.648;2023-02-28T10:30:50;8.67;;;6.87;;
18072;SDS011;9161;47.348;9.648;2023-02-28T10:35:54;11.97;;;6.73;;
18072;SDS011;9161;47.348;9.648;2023-02-28T10:41:03;9.53;;;6.77;;
18072;SDS011;9161;47.348;9.648;2023-02-28T10:46:12;9.27;;;6.90;;
18072;SDS011;9161;47.348;9.648;2023-02-28T10:51:26;10.10;;;7.10;;
18072;SDS011;9161;47.348;9.648;2023-02-28T10:56:38;9.10;;;7.07;;
18072;SDS011;9161;47.348;9.648;2023-02-28T11:01:42;12.53;;;7.57;;
18072;SDS011;9161;47.348;9.648;2023-02-28T11:06:46;9.17;;;7.10;;
18072;SDS011;9161;47.348;9.648;2023-02-28T11:11:49;10.03;;;7.27;;
18072;SDS011;9161;47.348;9.648;2023-02-28T11:16:54;10.47;;;7.57;;
18072;SDS011;9161;47.348;9.648;2023-02-28T11:22:03;13.47;;;7.47;;
18072;SDS011;9161;47.348;9.648;2023-02-28T11:27:11;10.47;;;7.43;;
18072;SDS011;9161;47.348;9.648;2023-02-28T11:32:29;9.88;;;7.60;;
18072;SDS011;9161;47.348;9.648;2023-02-28T11:37:32;10.60;;;7.77;;
18072;SDS011;9161;47.348;9.648;2023-02-28T11:42:42;9.90;;;7.60;;
18072;SDS011;9161;47.348;9.648;2023-02-28T11:47:55;10.03;;;7.47;;
18072;SDS011;9161;47.348;9.648;2023-02-28T11:53:05;11.07;;;7.70;;
18072;SDS011;9161;47.348;9.648;2023-02-28T12:03:50;11.18;;;7.30;;
18072;SDS011;9161;47.348;9.648;2023-02-28T12:09:02;9.75;;;7.38;;
18072;SDS011;9161;47.348;9.648;2023-02-28T12:14:18;8.50;;;7.60;;
18072;SDS011;9161;47.348;9.648;2023-02-28T12:19:34;9.18;;;7.32;;
18072;SDS011;9161;47.348;9.648;2023-02-28T12:24:48;10.03;;;7.90;;
18072;SDS011;9161;47.348;9.648;2023-02-28T12:30:04;11.23;;;7.60;;
18072;SDS011;9161;47.348;9.648;2023-02-28T12:35:17;10.27;;;7.73;;
18072;SDS011;9161;47.348;9.648;2023-02-28T12:40:25;9.90;;;7.37;;
18072;SDS011;9161;47.348;9.648;2023-02-28T12:45:34;10.30;;;7.30;;
18072;SDS011;9161;47.348;9.648;2023-02-28T12:50:43;10.17;;;7.03;;
18072;SDS011;9161;47.348;9.648;2023-02-28T12:55:46;10.23;;;7.73;;
18072;SDS011;9161;47.348;9.648;2023-02-28T13:00:58;12.37;;;7.73;;
18072;SDS011;9161;47.348;9.648;2023-02-28T13:06:37;9.73;;;7.00;;
18072;SDS011;9161;47.348;9.648;2023-02-28T13:11:52;9.65;;;7.03;;
18072;SDS011;9161;47.348;9.648;2023-02-28T13:16:57;9.52;;;7.20;;
18072;SDS011;9161;47.348;9.648;2023-02-28T13:22:04;8.52;;;7.18;;
18072;SDS011;9161;47.348;9.648;2023-02-28T13:32:35;11.82;;;8.07;;
18072;SDS011;9161;47.348;9.648;2023-02-28T13:37:46;9.10;;;7.38;;
18072;SDS011;9161;47.348;9.648;2023-02-28T13:42:52;9.13;;;6.93;;
18072;SDS011;9161;47.348;9.648;2023-02-28T13:47:55;8.45;;;7.32;;
18072;SDS011;9161;47.348;9.648;2023-02-28T13:58:48;9.07;;;7.35;;
18072;SDS011;9161;47.348;9.648;2023-02-28T14:09:41;8.77;;;7.25;;
18072;SDS011;9161;47.348;9.648;2023-02-28T14:14:57;9.98;;;7.57;;
18072;SDS011;9161;47.348;9.648;2023-02-28T14:20:00;11.20;;;7.20;;
18072;SDS011;9161;47.348;9.648;2023-02-28T14:25:10;9.00;;;7.55;;
18072;SDS011;9161;47.348;9.648;2023-02-28T14:30:32;8.98;;;7.25;;
18072;SDS011;9161;47.348;9.648;2023-02-28T14:35:48;9.45;;;7.10;;
18072;SDS011;9161;47.348;9.648;2023-02-28T14:41:00;9.20;;;7.32;;
18072;SDS011;9161;47.348;9.648;2023-02-28T14:46:06;9.77;;;7.30;;
18072;SDS011;9161;47.348;9.648;2023-02-28T14:51:08;10.03;;;7.43;;
18072;SDS011;9161;47.348;9.648;2023-02-28T14:56:19;15.20;;;8.17;;
18072;SDS011;9161;47.348;9.648;2023-02-28T15:01:24;14.23;;;8.80;;
18072;SDS011;9161;47.348;9.648;2023-02-28T15:06:27;12.60;;;8.70;;
18072;SDS011;9161;47.348;9.648;2023-02-28T15:11:31;15.43;;;8.90;;
18072;SDS011;9161;47.348;9.648;2023-02-28T15:16:34;16.33;;;8.93;;
18072;SDS011;9161;47.348;9.648;2023-02-28T15:21:41;15.77;;;9.83;;
18072;SDS011;9161;47.348;9.648;2023-02-28T15:26:48;13.50;;;8.67;;
18072;SDS011;9161;47.348;9.648;2023-02-28T15:31:56;13.73;;;8.43;;
18072;SDS011;9161;47.348;9.648;2023-02-28T15:37:02;16.23;;;9.10;;
18072;SDS011;9161;47.348;9.648;2023-02-28T15:42:16;15.97;;;9.17;;
18072;SDS011;9161;47.348;9.648;2023-02-28T15:47:21;16.00;;;9.00;;
18072;SDS011;9161;47.348;9.648;2023-02-28T15:52:27;15.77;;;9.50;;
18072;SDS011;9161;47.348;9.648;2023-02-28T15:57:36;17.90;;;9.63;;
18072;SDS011;9161;47.348;9.648;2023-02-28T16:02:41;17.63;;;10.07;;
18072;SDS011;9161;47.348;9.648;2023-02-28T16:07:44;16.03;;;9.60;;
18072;SDS011;9161;47.348;9.648;2023-02-28T16:12:49;46.17;;;18.80;;
18072;SDS011;9161;47.348;9.648;2023-02-28T16:17:52;21.47;;;10.77;;
18072;SDS011;9161;47.348;9.648;2023-02-28T16:22:55;17.43;;;9.83;;
18072;SDS011;9161;47.348;9.648;2023-02-28T16:28:03;18.77;;;9.80;;
18072;SDS011;9161;47.348;9.648;2023-02-28T16:33:07;21.27;;;11.73;;
18072;SDS011;9161;47.348;9.648;2023-02-28T16:38:11;19.77;;;9.57;;
18072;SDS011;9161;47.348;9.648;2023-02-28T16:43:17;19.27;;;10.93;;
18072;SDS011;9161;47.348;9.648;2023-02-28T16:48:22;19.33;;;9.93;;
18072;SDS011;9161;47.348;9.648;2023-02-28T16:53:24;17.67;;;9.87;;
18072;SDS011;9161;47.348;9.648;2023-02-28T16:58:29;18.20;;;10.17;;
18072;SDS011;9161;47.348;9.648;2023-02-28T17:03:31;18.13;;;10.63;;
18072;SDS011;9161;47.348;9.648;2023-02-28T17:08:35;22.57;;;10.73;;
18072;SDS011;9161;47.348;9.648;2023-02-28T17:13:39;19.47;;;10.33;;
18072;SDS011;9161;47.348;9.648;2023-02-28T17:18:42;18.60;;;10.27;;
18072;SDS011;9161;47.348;9.648;2023-02-28T17:23:46;21.50;;;11.03;;
18072;SDS011;9161;47.348;9.648;2023-02-28T17:28:51;20.40;;;10.93;;
18072;SDS011;9161;47.348;9.648;2023-02-28T17:33:56;22.47;;;12.20;;
18072;SDS011;9161;47.348;9.648;2023-02-28T17:39:00;32.83;;;18.63;;
18072;SDS011;9161;47.348;9.648;2023-02-28T17:44:10;24.10;;;13.10;;
18072;SDS011;9161;47.348;9.648;2023-02-28T17:49:13;21.93;;;11.73;;
18072;SDS011;9161;47.348;9.648;2023-02-28T17:54:18;22.23;;;11.97;;
18072;SDS011;9161;47.348;9.648;2023-02-28T17:59:23;20.30;;;9.97;;
18072;SDS011;9161;47.348;9.648;2023-02-28T18:04:26;21.13;;;11.50;;
18072;SDS011;9161;47.348;9.648;2023-02-28T18:09:29;24.57;;;11.47;;
18072;SDS011;9161;47.348;9.648;2023-02-28T18:14:34;35.50;;;16.53;;
18072;SDS011;9161;47.348;9.648;2023-02-28T18:19:37;20.10;;;11.17;;
18072;SDS011;9161;47.348;9.648;2023-02-28T18:24:41;24.73;;;12.07;;
18072;SDS011;9161;47.348;9.648;2023-02-28T18:29:45;23.03;;;11.57;;
18072;SDS011;9161;47.348;9.648;2023-02-28T18:34:49;22.87;;;11.27;;
18072;SDS011;9161;47.348;9.648;2023-02-28T18:39:52;23.30;;;11.53;;
18072;SDS011;9161;47.348;9.648;2023-02-28T18:45:01;22.47;;;11.77;;
18072;SDS011;9161;47.348;9.648;2023-02-28T18:50:07;26.50;;;13.27;;
18072;SDS011;9161;47.348;9.648;2023-02-28T18:55:11;20.50;;;11.60;;
18072;SDS011;9161;47.348;9.648;2023-02-28T19:00:20;23.67;;;11.60;;
18072;SDS011;9161;47.348;9.648;2023-02-28T19:05:26;23.50;;;11.83;;
18072;SDS011;9161;47.348;9.648;2023-02-28T19:10:37;26.23;;;11.93;;
18072;SDS011;9161;47.348;9.648;2023-02-28T19:15:43;21.00;;;11.80;;
18072;SDS011;9161;47.348;9.648;2023-02-28T19:20:56;21.93;;;12.27;;
18072;SDS011;9161;47.348;9.648;2023-02-28T19:26:03;26.37;;;12.93;;
18072;SDS011;9161;47.348;9.648;2023-02-28T19:31:12;26.07;;;13.30;;
18072;SDS011;9161;47.348;9.648;2023-02-28T19:36:19;26.57;;;13.17;;
18072;SDS011;9161;47.348;9.648;2023-02-28T19:41:24;25.33;;;12.67;;
18072;SDS011;9161;47.348;9.648;2023-02-28T19:46:30;24.00;;;12.07;;
18072;SDS011;9161;47.348;9.648;2023-02-28T19:51:35;24.83;;;12.63;;
18072;SDS011;9161;47.348;9.648;2023-02-28T19:56:44;22.10;;;11.80;;
18072;SDS011;9161;47.348;9.648;2023-02-28T20:01:48;22.77;;;11.40;;
18072;SDS011;9161;47.348;9.648;2023-02-28T20:06:54;28.13;;;13.17;;
18072;SDS011;9161;47.348;9.648;2023-02-28T20:12:00;26.27;;;13.60;;
18072;SDS011;9161;47.348;9.648;2023-02-28T20:17:10;30.47;;;13.47;;
18072;SDS011;9161;47.348;9.648;2023-02-28T20:22:15;24.27;;;12.17;;
18072;SDS011;9161;47.348;9.648;2023-02-28T20:27:19;24.87;;;12.87;;
18072;SDS011;9161;47.348;9.648;2023-02-28T20:32:26;27.90;;;13.23;;
18072;SDS011;9161;47.348;9.648;2023-02-28T20:37:30;26.37;;;12.80;;
18072;SDS011;9161;47.348;9.648;2023-02-28T20:42:35;27.87;;;13.13;;
18072;SDS011;9161;47.348;9.648;2023-02-28T20:47:40;31.07;;;14.10;;
18072;SDS011;9161;47.348;9.648;2023-02-28T20:52:44;28.50;;;13.90;;
18072;SDS011;9161;47.348;9.648;2023-02-28T20:57:47;24.70;;;12.60;;
18072;SDS011;9161;47.348;9.648;2023-02-28T21:02:52;25.20;;;12.70;;
18072;SDS011;9161;47.348;9.648;2023-02-28T21:07:58;24.67;;;12.60;;
18072;SDS011;9161;47.348;9.648;2023-02-28T21:13:00;24.57;;;13.07;;
18072;SDS011;9161;47.348;9.648;2023-02-28T21:18:04;26.60;;;12.07;;
18072;SDS011;9161;47.348;9.648;2023-02-28T21:23:06;21.57;;;11.73;;
18072;SDS011;9161;47.348;9.648;2023-02-28T21:28:09;25.50;;;12.57;;
18072;SDS011;9161;47.348;9.648;2023-02-28T21:33:14;26.27;;;13.13;;
18072;SDS011;9161;47.348;9.648;2023-02-28T21:38:16;25.70;;;12.83;;
18072;SDS011;9161;47.348;9.648;2023-02-28T21:43:19;26.20;;;13.00;;
18072;SDS011;9161;47.348;9.648;2023-02-28T21:48:23;29.53;;;13.47;;
18072;SDS011;9161;47.348;9.648;2023-02-28T21:53:25;23.90;;;12.17;;
18072;SDS011;9161;47.348;9.648;2023-02-28T21:58:27;27.53;;;12.93;;
18072;SDS011;9161;47.348;9.648;2023-02-28T22:03:32;25.53;;;12.73;;
18072;SDS011;9161;47.348;9.648;2023-02-28T22:08:34;24.60;;;11.77;;
18072;SDS011;9161;47.348;9.648;2023-02-28T22:13:38;25.10;;;12.20;;
18072;SDS011;9161;47.348;9.648;2023-02-28T22:18:42;26.13;;;12.97;;
18072;SDS011;9161;47.348;9.648;2023-02-28T22:23:45;24.03;;;12.63;;
18072;SDS011;9161;47.348;9.648;2023-02-28T22:28:47;28.43;;;13.07;;
18072;SDS011;9161;47.348;9.648;2023-02-28T22:33:52;24.63;;;12.40;;
18072;SDS011;9161;47.348;9.648;2023-02-28T22:38:56;26.40;;;13.47;;
18072;SDS011;9161;47.348;9.648;2023-02-28T22:44:00;24.33;;;12.43;;
18072;SDS011;9161;47.348;9.648;2023-02-28T22:49:21;26.30;;;12.53;;
18072;SDS011;9161;47.348;9.648;2023-02-28T22:54:27;24.37;;;12.80;;
18072;SDS011;9161;47.348;9.648;2023-02-28T22:59:46;25.17;;;12.13;;
18072;SDS011;9161;47.348;9.648;2023-02-28T23:04:50;23.67;;;12.07;;
18072;SDS011;9161;47.348;9.648;2023-02-28T23:09:52;23.93;;;12.30;;
18072;SDS011;9161;47.348;9.648;2023-02-28T23:14:55;23.43;;;11.73;;
18072;SDS011;9161;47.348;9.648;2023-02-28T23:19:59;24.77;;;12.87;;
18072;SDS011;9161;47.348;9.648;2023-02-28T23:25:01;25.43;;;12.87;;
18072;SDS011;9161;47.348;9.648;2023-02-28T23:30:03;28.93;;;12.47;;
18072;SDS011;9161;47.348;9.648;2023-02-28T23:35:09;27.27;;;12.50;;
18072;SDS011;9161;47.348;9.648;2023-02-28T23:40:12;27.43;;;11.60;;
18072;SDS011;9161;47.348;9.648;2023-02-28T23:45:15;25.60;;;12.20;;
18072;SDS011;9161;47.348;9.648;2023-02-28T23:50:22;24.00;;;12.90;;
18072;SDS011;9161;47.348;9.648;2023-02-28T23:55:25;25.13;;;12.27;;
